createdAt,value
2022-07-28T00:02:00.936Z,97448.97
2022-07-28T00:04:30.222Z,97446.69
2022-07-28T00:06:58.092Z,97445.50
2022-07-28T00:09:25.880Z,97441.81
2022-07-28T00:11:54.597Z,97442.91
2022-07-28T00:14:23.438Z,97444.88
2022-07-28T00:16:51.743Z,97448.75
2022-07-28T00:19:20.271Z,97439.31
2022-07-28T00:21:49.404Z,97447.06
2022-07-28T00:24:17.432Z,97444.88
2022-07-28T00:26:46.794Z,97438.09
2022-07-28T00:29:14.791Z,97428.88
2022-07-28T00:31:43.642Z,97435.81
2022-07-28T00:34:13.013Z,97435.81
2022-07-28T00:36:41.103Z,97435.44
2022-07-28T00:39:10.293Z,97442.41
2022-07-28T00:41:38.107Z,97439.16
2022-07-28T00:44:07.534Z,97433.03
2022-07-28T00:46:35.838Z,97435.78
2022-07-28T00:49:03.994Z,97429.59
2022-07-28T00:51:32.234Z,97426.22
2022-07-28T00:54:00.203Z,97428.06
2022-07-28T00:56:29.497Z,97428.88
2022-07-28T00:58:57.450Z,97424.47
2022-07-28T01:01:25.479Z,97426.44
2022-07-28T01:03:55.892Z,97427.16
2022-07-28T01:06:44.136Z,97424.75
2022-07-28T01:09:25.329Z,97420.81
2022-07-28T01:12:00.012Z,97416.50
2022-07-28T01:14:35.399Z,97418.69
2022-07-28T01:17:15.198Z,97428.94
2022-07-28T01:19:49.562Z,97412.28
2022-07-28T01:22:22.276Z,97413.41
2022-07-28T01:24:57.364Z,97424.72
2022-07-28T01:27:46.392Z,97418.63
2022-07-28T01:30:30.955Z,97413.56
2022-07-28T01:33:03.526Z,97420.09
2022-07-28T01:35:37.571Z,97414.47
2022-07-28T01:38:08.950Z,97405.88
2022-07-28T01:40:38.094Z,97413.78
2022-07-28T01:43:08.902Z,97408.59
2022-07-28T01:45:42.415Z,97411.31
2022-07-28T01:48:12.340Z,97411.94
2022-07-28T01:50:40.966Z,97408.66
2022-07-28T01:53:11.381Z,97413.53
2022-07-28T01:55:40.581Z,97412.59
2022-07-28T01:58:08.904Z,97413.25
2022-07-28T02:00:37.858Z,97409.78
2022-07-28T02:03:10.696Z,97415.69
2022-07-28T02:05:41.380Z,97419.69
2022-07-28T02:08:10.695Z,97416.41
2022-07-28T02:10:42.134Z,97419.69
2022-07-28T02:13:11.226Z,97412.81
2022-07-28T02:15:41.144Z,97418.66
2022-07-28T02:18:11.927Z,97418.63
2022-07-28T02:20:41.367Z,97416.88
2022-07-28T02:23:10.610Z,97422.84
2022-07-28T02:25:41.254Z,97420.19
2022-07-28T02:28:12.148Z,97423.53
2022-07-28T02:30:54.909Z,97419.41
2022-07-28T02:33:58.896Z,97415.84
2022-07-28T02:36:26.273Z,97418.50
2022-07-28T02:38:57.181Z,97418.72
2022-07-28T02:41:28.618Z,97418.25
2022-07-28T02:44:00.675Z,97417.59
2022-07-28T02:46:38.245Z,97418.88
2022-07-28T02:49:13.423Z,97416.28
2022-07-28T02:51:43.481Z,97423.19
2022-07-28T02:54:13.937Z,97430.34
2022-07-28T02:56:53.535Z,97435.44
2022-07-28T02:59:23.089Z,97433.50
2022-07-28T03:01:51.902Z,97434.53
2022-07-28T03:04:42.102Z,97427.78
2022-07-28T03:07:10.998Z,97433.75
2022-07-28T03:09:40.717Z,97432.25
2022-07-28T03:12:09.284Z,97430.47
2022-07-28T03:14:37.500Z,97432.13
2022-07-28T03:17:06.383Z,97425.06
2022-07-28T03:19:35.904Z,97432.25
2022-07-28T03:22:03.968Z,97435.06
2022-07-28T03:24:36.441Z,97429.66
2022-07-28T03:27:12.862Z,97435.13
2022-07-28T03:29:43.785Z,97436.09
2022-07-28T03:32:12.692Z,97435.13
2022-07-28T03:34:42.171Z,97431.47
2022-07-28T03:37:13.967Z,97434.75
2022-07-28T03:39:47.005Z,97448.13
2022-07-28T03:42:17.915Z,97452.50
2022-07-28T03:44:47.716Z,97448.56
2022-07-28T03:47:15.759Z,97455.00
2022-07-28T03:49:47.924Z,97444.19
2022-07-28T03:52:15.825Z,97449.09
2022-07-28T03:54:43.809Z,97450.97
2022-07-28T03:57:12.283Z,97448.00
2022-07-28T03:59:40.072Z,97446.16
2022-07-28T04:02:07.957Z,97449.38
2022-07-28T04:04:35.920Z,97446.84
2022-07-28T04:07:05.151Z,97447.69
2022-07-28T04:09:32.881Z,97452.41
2022-07-28T04:12:00.679Z,97442.94
2022-07-28T04:14:28.459Z,97443.59
2022-07-28T04:16:56.394Z,97446.75
2022-07-28T04:19:24.285Z,97454.03
2022-07-28T04:21:52.131Z,97446.97
2022-07-28T04:24:21.280Z,97444.81
2022-07-28T04:26:49.148Z,97443.53
2022-07-28T04:29:23.300Z,97442.06
2022-07-28T04:31:56.176Z,97447.94
2022-07-28T04:34:25.025Z,97440.69
2022-07-28T04:36:53.154Z,97447.19
2022-07-28T04:39:22.432Z,97438.94
2022-07-28T04:41:50.953Z,97436.19
2022-07-28T04:44:18.864Z,97439.19
2022-07-28T04:46:46.848Z,97438.88
2022-07-28T04:49:14.910Z,97447.28
2022-07-28T04:51:45.370Z,97441.50
2022-07-28T04:54:13.683Z,97444.53
2022-07-28T04:56:44.698Z,97443.84
2022-07-28T04:59:12.968Z,97448.91
2022-07-28T05:01:44.215Z,97443.16
2022-07-28T05:04:12.509Z,97449.13
2022-07-28T05:06:40.548Z,97447.41
2022-07-28T05:09:08.736Z,97443.91
2022-07-28T05:11:36.699Z,97437.31
2022-07-28T05:14:06.308Z,97443.84
2022-07-28T05:16:34.380Z,97441.22
2022-07-28T05:19:02.490Z,97445.00
2022-07-28T05:21:30.535Z,97433.69
2022-07-28T05:23:58.391Z,97436.56
2022-07-28T05:26:26.887Z,97430.13
2022-07-28T05:28:54.739Z,97437.22
2022-07-28T05:31:25.339Z,97443.25
2022-07-28T05:33:53.840Z,97444.47
2022-07-28T05:36:21.642Z,97445.69
2022-07-28T05:38:49.620Z,97444.03
2022-07-28T05:41:17.443Z,97446.13
2022-07-28T05:43:45.608Z,97443.34
2022-07-28T05:46:13.463Z,97450.09
2022-07-28T05:48:42.695Z,97449.50
2022-07-28T05:51:10.535Z,97448.41
2022-07-28T05:53:38.663Z,97444.94
2022-07-28T05:56:07.355Z,97446.72
2022-07-28T05:58:35.269Z,97450.31
2022-07-28T06:01:03.911Z,97445.72
2022-07-28T06:03:39.759Z,97440.91
2022-07-28T06:06:15.699Z,97451.00
2022-07-28T06:08:46.642Z,97451.00
2022-07-28T06:11:21.755Z,97451.22
2022-07-28T06:13:51.560Z,97449.63
2022-07-28T06:16:20.839Z,97446.50
2022-07-28T06:18:48.946Z,97453.00
2022-07-28T06:21:18.328Z,97455.53
2022-07-28T06:23:46.436Z,97447.72
2022-07-28T06:26:14.211Z,97445.03
2022-07-28T06:28:41.922Z,97452.59
2022-07-28T06:31:10.144Z,97452.94
2022-07-28T06:33:38.856Z,97457.97
2022-07-28T06:36:07.514Z,97458.50
2022-07-28T06:38:36.624Z,97455.75
2022-07-28T06:41:04.537Z,97459.09
2022-07-28T06:43:36.834Z,97450.91
2022-07-28T06:46:06.869Z,97468.56
2022-07-28T06:48:37.517Z,97458.34
2022-07-28T06:51:05.982Z,97451.03
2022-07-28T06:53:34.695Z,97453.19
2022-07-28T06:56:06.024Z,97450.78
2022-07-28T06:58:34.347Z,97456.06
2022-07-28T07:01:03.206Z,97453.19
2022-07-28T07:03:31.098Z,97439.66
2022-07-28T07:05:58.973Z,97450.25
2022-07-28T07:08:26.892Z,97438.28
2022-07-28T07:10:54.857Z,97446.66
2022-07-28T07:13:24.165Z,97442.47
2022-07-28T07:15:52.151Z,97442.78
2022-07-28T07:18:19.985Z,97442.44
2022-07-28T07:20:49.009Z,97455.59
2022-07-28T07:23:16.920Z,97443.06
2022-07-28T07:25:44.667Z,97440.75
2022-07-28T07:28:12.541Z,97444.47
2022-07-28T07:30:41.786Z,97451.13
2022-07-28T07:33:12.060Z,97453.84
2022-07-28T07:35:40.508Z,97443.47
2022-07-28T07:38:08.384Z,97448.84
2022-07-28T07:40:36.588Z,97442.78
2022-07-28T07:43:04.960Z,97445.81
2022-07-28T07:45:34.347Z,97451.47
2022-07-28T07:48:03.595Z,97433.81
2022-07-28T07:50:31.492Z,97436.94
2022-07-28T07:52:59.488Z,97435.25
2022-07-28T07:55:27.947Z,97425.63
2022-07-28T07:58:02.416Z,97435.78
2022-07-28T08:00:30.896Z,97432.75
2022-07-28T08:03:00.326Z,97426.09
2022-07-28T08:05:35.674Z,97426.06
2022-07-28T08:08:05.139Z,97432.25
2022-07-28T08:10:33.423Z,97433.56
2022-07-28T08:13:01.278Z,97436.47
2022-07-28T08:15:29.088Z,97440.66
2022-07-28T08:17:57.023Z,97440.44
2022-07-28T08:20:25.016Z,97435.41
2022-07-28T08:22:56.063Z,97435.38
2022-07-28T08:25:25.232Z,97435.38
2022-07-28T08:27:52.975Z,97435.28
2022-07-28T08:30:22.316Z,97437.09
2022-07-28T08:32:56.529Z,97434.25
2022-07-28T08:35:35.162Z,97430.59
2022-07-28T08:38:07.079Z,97420.88
2022-07-28T08:40:36.501Z,97423.00
2022-07-28T08:43:13.235Z,97428.56
2022-07-28T08:45:44.489Z,97423.47
2022-07-28T08:48:12.983Z,97417.56
2022-07-28T08:50:41.692Z,97426.81
2022-07-28T08:53:11.801Z,97428.41
2022-07-28T08:55:40.673Z,97430.88
2022-07-28T08:58:08.722Z,97436.88
2022-07-28T09:00:36.860Z,97441.00
2022-07-28T09:03:05.439Z,97439.56
2022-07-28T09:05:33.967Z,97435.66
2022-07-28T09:08:02.822Z,97438.06
2022-07-28T09:10:32.157Z,97429.13
2022-07-28T09:13:00.036Z,97424.81
2022-07-28T09:15:28.132Z,97427.38
2022-07-28T09:17:56.648Z,97428.31
2022-07-28T09:20:24.941Z,97427.41
2022-07-28T09:22:58.248Z,97427.28
2022-07-28T09:25:27.310Z,97421.41
2022-07-28T09:27:57.361Z,97419.84
2022-07-28T09:30:30.886Z,97416.94
2022-07-28T09:33:42.529Z,97417.22
2022-07-28T09:36:16.791Z,97420.59
2022-07-28T09:38:45.807Z,97419.16
2022-07-28T09:41:14.644Z,97417.88
2022-07-28T09:43:47.766Z,97431.25
2022-07-28T09:46:19.580Z,97428.44
2022-07-28T09:48:53.983Z,97415.66
2022-07-28T09:51:24.774Z,97420.72
2022-07-28T09:53:53.458Z,97429.06
2022-07-28T09:56:23.404Z,97418.88
2022-07-28T09:58:58.102Z,97435.03
2022-07-28T10:01:29.225Z,97411.75
2022-07-28T10:04:04.765Z,97422.06
2022-07-28T10:06:34.467Z,97406.78
2022-07-28T10:09:03.997Z,97406.47
2022-07-28T10:11:34.375Z,97405.59
2022-07-28T10:14:07.959Z,97412.31
2022-07-28T10:16:38.195Z,97409.97
2022-07-28T10:19:06.834Z,97421.00
2022-07-28T10:21:37.328Z,97412.38
2022-07-28T10:24:07.713Z,97407.50
2022-07-28T10:26:39.752Z,97398.09
2022-07-28T10:29:13.529Z,97394.00
2022-07-28T10:31:49.534Z,97405.13
2022-07-28T10:34:24.473Z,97395.03
2022-07-28T10:36:55.345Z,97388.44
2022-07-28T10:39:26.244Z,97395.94
2022-07-28T10:41:55.155Z,97405.72
2022-07-28T10:44:25.431Z,97397.28
2022-07-28T10:46:53.761Z,97386.47
2022-07-28T10:49:22.215Z,97380.09
2022-07-28T10:52:06.689Z,97381.78
2022-07-28T10:54:49.902Z,97384.63
2022-07-28T10:57:19.198Z,97389.44
2022-07-28T11:00:12.240Z,97383.53
2022-07-28T11:02:45.752Z,97384.56
2022-07-28T11:05:37.665Z,97382.78
2022-07-28T11:08:08.910Z,97382.88
2022-07-28T11:10:48.771Z,97373.69
2022-07-28T11:13:29.052Z,97376.66
2022-07-28T11:16:18.408Z,97383.44
2022-07-28T11:19:07.556Z,97378.56
2022-07-28T11:21:39.638Z,97391.03
2022-07-28T11:24:09.011Z,97381.31
2022-07-28T11:26:45.721Z,97366.16
2022-07-28T11:29:21.451Z,97369.63
2022-07-28T11:32:04.907Z,97363.13
2022-07-28T11:35:09.144Z,97367.56
2022-07-28T11:38:09.224Z,97362.91
2022-07-28T11:40:42.161Z,97359.00
2022-07-28T11:43:37.746Z,97368.41
2022-07-28T11:46:30.604Z,97362.56
2022-07-28T11:49:21.171Z,97358.06
2022-07-28T11:52:20.823Z,97365.50
2022-07-28T11:54:55.259Z,97363.94
2022-07-28T11:57:25.904Z,97350.09
2022-07-28T12:00:00.082Z,97358.13
2022-07-28T12:02:31.532Z,97351.94
2022-07-28T12:05:07.271Z,97345.44
2022-07-28T12:07:41.774Z,97341.66
2022-07-28T12:10:53.914Z,97349.38
2022-07-28T12:13:27.843Z,97344.84
2022-07-28T12:15:55.784Z,97340.75
2022-07-28T12:18:24.764Z,97335.94
2022-07-28T12:20:55.715Z,97329.16
2022-07-28T12:23:39.352Z,97326.97
2022-07-28T12:26:29.345Z,97330.34
2022-07-28T12:29:00.207Z,97333.28
2022-07-28T12:31:34.300Z,97326.97
2022-07-28T12:34:06.298Z,97332.56
2022-07-28T12:36:35.478Z,97329.75
2022-07-28T12:39:10.874Z,97324.28
2022-07-28T12:41:40.884Z,97316.47
2022-07-28T12:44:08.925Z,97328.31
2022-07-28T12:46:36.897Z,97323.25
2022-07-28T12:49:04.924Z,97315.38
2022-07-28T12:51:36.725Z,97312.41
2022-07-28T12:54:06.503Z,97307.16
2022-07-28T12:56:45.898Z,97317.75
2022-07-28T12:59:14.633Z,97305.03
2022-07-28T13:01:46.844Z,97307.28
2022-07-28T13:04:15.276Z,97306.63
2022-07-28T13:06:55.036Z,97302.63
2022-07-28T13:09:24.031Z,97300.47
2022-07-28T13:12:00.932Z,97296.78
2022-07-28T13:14:52.176Z,97290.91
2022-07-28T13:17:21.412Z,97295.03
2022-07-28T13:19:50.263Z,97296.44
2022-07-28T13:22:28.641Z,97293.81
2022-07-28T13:24:57.938Z,97296.53
2022-07-28T13:27:26.059Z,97285.81
2022-07-28T13:29:54.144Z,97278.44
2022-07-28T13:32:22.665Z,97285.19
2022-07-28T13:34:51.833Z,97293.78
2022-07-28T13:37:20.216Z,97295.97
2022-07-28T13:39:54.147Z,97289.19
2022-07-28T13:42:23.567Z,97293.97
2022-07-28T13:44:51.782Z,97286.69
2022-07-28T13:47:19.701Z,97287.81
2022-07-28T13:49:47.815Z,97275.75
2022-07-28T13:52:33.175Z,97276.81
2022-07-28T13:55:06.236Z,97271.72
2022-07-28T13:57:35.798Z,97270.19
2022-07-28T14:00:07.922Z,97271.63
2022-07-28T14:02:36.718Z,97272.25
2022-07-28T14:05:05.623Z,97275.03
2022-07-28T14:07:33.645Z,97269.44
2022-07-28T14:10:02.053Z,97258.72
2022-07-28T14:12:31.344Z,97266.78
2022-07-28T14:14:59.755Z,97263.09
2022-07-28T14:17:45.682Z,97268.41
2022-07-28T14:20:15.238Z,97264.41
2022-07-28T14:22:43.793Z,97262.09
2022-07-28T14:25:13.477Z,97261.63
2022-07-28T14:27:51.059Z,97268.09
2022-07-28T14:30:20.233Z,97262.91
2022-07-28T14:32:49.670Z,97262.31
2022-07-28T14:35:19.313Z,97252.06
2022-07-28T14:38:23.550Z,97254.66
2022-07-28T14:40:39.498Z,97247.84
2022-07-28T14:43:10.240Z,97238.72
2022-07-28T14:46:01.368Z,97244.34
2022-07-28T14:48:26.326Z,97245.56
2022-07-28T14:50:55.515Z,97245.63
2022-07-28T14:53:24.123Z,97248.53
2022-07-28T14:55:55.770Z,97236.47
2022-07-28T14:58:25.746Z,97242.22
2022-07-28T15:00:53.784Z,97242.16
2022-07-28T15:03:21.639Z,97241.50
2022-07-28T15:05:49.570Z,97240.66
2022-07-28T15:08:17.396Z,97239.41
2022-07-28T15:10:45.356Z,97234.63
2022-07-28T15:13:17.063Z,97227.78
2022-07-28T15:15:46.789Z,97223.88
2022-07-28T15:18:14.701Z,97217.53
2022-07-28T15:20:43.312Z,97222.78
2022-07-28T15:23:11.747Z,97211.66
2022-07-28T15:25:39.609Z,97206.47
2022-07-28T15:28:07.965Z,97219.91
2022-07-28T15:30:35.829Z,97219.34
2022-07-28T15:33:12.247Z,97227.94
2022-07-28T15:35:57.999Z,97216.84
2022-07-28T15:38:29.084Z,97216.97
2022-07-28T15:40:58.789Z,97224.00
2022-07-28T15:43:27.054Z,97214.44
2022-07-28T15:45:56.327Z,97222.59
2022-07-28T15:48:25.698Z,97216.50
2022-07-28T15:50:53.502Z,97219.53
2022-07-28T15:53:21.389Z,97210.44
2022-07-28T15:55:51.566Z,97211.03
2022-07-28T15:58:20.286Z,97209.81
2022-07-28T16:00:48.312Z,97205.66
2022-07-28T16:03:16.307Z,97204.63
2022-07-28T16:05:49.569Z,97202.56
2022-07-28T16:08:18.116Z,97197.41
2022-07-28T16:10:51.477Z,97195.13
2022-07-28T16:13:35.801Z,97195.88
2022-07-28T16:16:07.341Z,97194.91
2022-07-28T16:18:37.385Z,97191.00
2022-07-28T16:21:07.697Z,97186.69
2022-07-28T16:23:35.909Z,97187.03
2022-07-28T16:26:07.517Z,97195.81
2022-07-28T16:28:35.426Z,97197.47
2022-07-28T16:31:03.542Z,97205.88
2022-07-28T16:33:34.011Z,97199.06
2022-07-28T16:36:04.173Z,97200.19
2022-07-28T16:38:33.352Z,97196.81
2022-07-28T16:41:01.240Z,97195.84
2022-07-28T16:43:29.340Z,97191.81
2022-07-28T16:45:57.314Z,97198.50
2022-07-28T16:48:25.282Z,97196.19
2022-07-28T16:50:53.146Z,97196.28
2022-07-28T16:53:21.099Z,97202.59
2022-07-28T16:55:50.334Z,97196.16
2022-07-28T16:58:19.946Z,97199.03
2022-07-28T17:00:47.908Z,97200.53
2022-07-28T17:03:16.958Z,97198.19
2022-07-28T17:05:44.845Z,97205.38
2022-07-28T17:08:13.131Z,97196.31
2022-07-28T17:10:40.908Z,97207.88
2022-07-28T17:13:12.041Z,97204.56
2022-07-28T17:15:41.248Z,97197.13
2022-07-28T17:18:09.083Z,97204.69
2022-07-28T17:20:41.871Z,97207.63
2022-07-28T17:23:09.944Z,97202.50
2022-07-28T17:28:27.309Z,97213.81
2022-07-28T17:30:55.279Z,97216.75
2022-07-28T17:33:25.245Z,97218.88
2022-07-28T17:35:56.103Z,97224.22
2022-07-28T17:38:32.523Z,97221.16
2022-07-28T17:41:03.880Z,97219.44
2022-07-28T17:43:33.535Z,97217.50
2022-07-28T17:46:02.992Z,97215.50
2022-07-28T17:48:38.304Z,97213.63
2022-07-28T17:51:06.432Z,97214.25
2022-07-28T17:53:39.282Z,97213.03
2022-07-28T17:56:08.592Z,97209.75
2022-07-28T17:58:39.265Z,97221.25
2022-07-28T18:01:12.428Z,97209.91
2022-07-28T18:03:56.829Z,97216.66
2022-07-28T18:06:33.915Z,97224.22
2022-07-28T18:09:06.392Z,97219.81
2022-07-28T18:11:56.525Z,97210.44
2022-07-28T18:14:27.245Z,97221.38
2022-07-28T18:16:55.269Z,97217.22
2022-07-28T18:19:23.046Z,97224.19
2022-07-28T18:21:50.873Z,97220.22
2022-07-28T18:24:21.697Z,97224.03
2022-07-28T18:26:49.918Z,97223.00
2022-07-28T18:29:17.755Z,97226.06
2022-07-28T18:31:48.487Z,97219.72
2022-07-28T18:34:17.150Z,97223.13
2022-07-28T18:36:45.901Z,97218.56
2022-07-28T18:39:13.914Z,97223.25
2022-07-28T18:41:47.240Z,97230.78
2022-07-28T18:44:17.327Z,97219.25
2022-07-28T18:46:47.547Z,97232.13
2022-07-28T18:49:15.727Z,97227.78
2022-07-28T18:51:44.249Z,97228.66
2022-07-28T18:54:16.481Z,97230.88
2022-07-28T18:56:48.536Z,97232.91
2022-07-28T18:59:16.370Z,97237.38
2022-07-28T19:01:44.400Z,97231.19
2022-07-28T19:04:13.846Z,97244.25
2022-07-28T19:06:42.574Z,97240.88
2022-07-28T19:09:10.530Z,97254.25
2022-07-28T19:11:43.756Z,97250.78
2022-07-28T19:14:14.042Z,97257.78
2022-07-28T19:16:42.037Z,97270.03
2022-07-28T19:19:09.903Z,97264.13
2022-07-28T19:21:43.268Z,97261.25
2022-07-28T19:24:12.383Z,97267.03
2022-07-28T19:26:40.359Z,97272.34
2022-07-28T19:29:08.196Z,97267.16
2022-07-28T19:31:37.608Z,97277.72
2022-07-28T19:34:06.615Z,97281.59
2022-07-28T19:36:34.463Z,97282.91
2022-07-28T19:39:03.841Z,97281.91
2022-07-28T19:41:31.908Z,97286.34
2022-07-28T19:43:59.682Z,97281.88
2022-07-28T19:46:27.596Z,97282.47
2022-07-28T19:48:55.859Z,97288.69
2022-07-28T19:51:23.648Z,97275.81
2022-07-28T19:53:51.841Z,97281.91
2022-07-28T19:56:21.664Z,97276.41
2022-07-28T19:58:56.680Z,97278.78
2022-07-28T20:01:24.492Z,97277.59
2022-07-28T20:04:01.020Z,97270.72
2022-07-28T20:06:32.519Z,97273.47
2022-07-28T20:09:00.509Z,97280.81
2022-07-28T20:11:29.776Z,97286.94
2022-07-28T20:13:57.566Z,97290.31
2022-07-28T20:16:25.510Z,97286.69
2022-07-28T20:18:53.294Z,97280.94
2022-07-28T20:21:24.034Z,97292.69
2022-07-28T20:23:53.653Z,97293.16
2022-07-28T20:26:23.798Z,97288.28
2022-07-28T20:28:53.546Z,97290.72
2022-07-28T20:31:21.971Z,97287.72
2022-07-28T20:33:50.360Z,97288.53
2022-07-28T20:36:18.351Z,97278.66
2022-07-28T20:38:46.236Z,97272.47
2022-07-28T20:41:14.064Z,97276.88
2022-07-28T20:43:41.925Z,97283.72
2022-07-28T20:46:10.998Z,97283.00
2022-07-28T20:48:38.985Z,97284.44
2022-07-28T20:51:06.907Z,97290.44
2022-07-28T20:53:37.419Z,97288.59
2022-07-28T20:56:05.887Z,97284.53
2022-07-28T20:58:33.909Z,97293.38
2022-07-28T21:01:02.576Z,97291.09
2022-07-28T21:03:31.781Z,97286.03
2022-07-28T21:05:59.632Z,97285.41
2022-07-28T21:08:27.840Z,97284.75
2022-07-28T21:10:55.778Z,97290.34
2022-07-28T21:13:23.733Z,97283.72
2022-07-28T21:15:51.714Z,97289.72
2022-07-28T21:18:19.554Z,97285.09
2022-07-28T21:20:48.718Z,97293.19
2022-07-28T21:23:18.209Z,97298.78
2022-07-28T21:25:46.548Z,97300.94
2022-07-28T21:28:31.955Z,97294.88
2022-07-28T21:31:01.438Z,97304.69
2022-07-28T21:33:30.196Z,97310.41
2022-07-28T21:36:00.716Z,97302.81
2022-07-28T21:38:28.864Z,97305.41
2022-07-28T21:40:57.134Z,97312.91
2022-07-28T21:43:25.047Z,97314.94
2022-07-28T21:45:52.898Z,97319.19
2022-07-28T21:48:23.784Z,97319.97
2022-07-28T21:50:52.073Z,97315.88
2022-07-28T21:53:21.968Z,97324.56
2022-07-28T21:55:49.808Z,97323.16
2022-07-28T21:58:17.623Z,97322.59
2022-07-28T22:00:45.600Z,97316.19
2022-07-28T22:03:13.377Z,97317.69
2022-07-28T22:05:41.644Z,97318.63
2022-07-28T22:08:09.650Z,97323.03
2022-07-28T22:10:39.147Z,97313.91
2022-07-28T22:13:07.113Z,97313.16
2022-07-28T22:15:34.946Z,97312.34
2022-07-28T22:18:02.764Z,97305.97
2022-07-28T22:20:30.871Z,97314.44
2022-07-28T22:22:58.665Z,97310.00
2022-07-28T22:25:26.428Z,97318.72
2022-07-28T22:27:55.767Z,97327.13
2022-07-28T22:30:23.847Z,97325.38
2022-07-28T22:32:52.259Z,97326.00
2022-07-28T22:35:20.873Z,97321.59
2022-07-28T22:37:49.465Z,97323.59
2022-07-28T22:40:17.439Z,97323.84
2022-07-28T22:42:45.583Z,97317.50
2022-07-28T22:45:14.825Z,97325.59
2022-07-28T22:48:02.666Z,97317.91
2022-07-28T22:50:30.743Z,97321.66
2022-07-28T22:52:58.724Z,97323.84
2022-07-28T22:55:26.790Z,97322.97
2022-07-28T22:57:54.691Z,97328.69
2022-07-28T23:00:23.969Z,97335.06
2022-07-28T23:02:52.105Z,97342.94
2022-07-28T23:05:20.055Z,97348.25
2022-07-28T23:07:52.873Z,97347.16
2022-07-28T23:10:25.500Z,97357.84
2022-07-28T23:12:57.334Z,97353.84
2022-07-28T23:15:40.411Z,97345.22
2022-07-28T23:18:10.045Z,97347.59
2022-07-28T23:20:37.877Z,97339.88
2022-07-28T23:23:05.705Z,97340.22
2022-07-28T23:25:33.651Z,97334.22
2022-07-28T23:28:01.599Z,97325.06
2022-07-28T23:30:30.676Z,97334.50
2022-07-28T23:32:59.334Z,97332.94
2022-07-28T23:35:29.629Z,97332.34
2022-07-28T23:37:57.673Z,97339.03
2022-07-28T23:40:25.532Z,97345.63
2022-07-28T23:42:53.331Z,97343.34
2022-07-28T23:45:21.071Z,97341.22
2022-07-28T23:47:53.872Z,97347.28
2022-07-28T23:50:25.033Z,97343.44
2022-07-28T23:52:52.768Z,97353.03
2022-07-28T23:55:20.583Z,97354.13
2022-07-28T23:57:48.816Z,97358.75
